sensor_id;sensor_type;location;lat;lon;timestamp;pressure;altitude;pressure_sealevel;temperature;humidity
65880;BME280;52661;51.364;6.054;2023-08-01T00:00:39;99565.47;;;16.93;100.00
65880;BME280;52661;51.364;6.054;2023-08-01T00:03:05;99569.72;;;16.94;100.00
65880;BME280;52661;51.364;6.054;2023-08-01T00:05:30;99571.69;;;16.93;100.00
65880;BME280;52661;51.364;6.054;2023-08-01T00:07:55;99565.47;;;16.93;100.00
65880;BME280;52661;51.364;6.054;2023-08-01T00:10:21;99568.06;;;16.87;100.00
65880;BME280;52661;51.364;6.054;2023-08-01T00:12:46;99572.63;;;16.90;100.00
65880;BME280;52661;51.364;6.054;2023-08-01T00:15:12;99566.06;;;16.88;100.00
65880;BME280;52661;51.364;6.054;2023-08-01T00:17:37;99557.84;;;16.88;100.00
65880;BME280;52661;51.364;6.054;2023-08-01T00:20:03;99546.72;;;16.91;100.00
65880;BME280;52661;51.364;6.054;2023-08-01T00:22:29;99535.31;;;16.93;100.00
65880;BME280;52661;51.364;6.054;2023-08-01T00:24:54;99525.25;;;16.90;100.00
65880;BME280;52661;51.364;6.054;2023-08-01T00:27:20;99540.81;;;16.93;100.00
65880;BME280;52661;51.364;6.054;2023-08-01T00:29:45;99542.03;;;16.92;100.00
65880;BME280;52661;51.364;6.054;2023-08-01T00:32:11;99541.69;;;16.90;100.00
65880;BME280;52661;51.364;6.054;2023-08-01T00:34:36;99540.81;;;16.93;100.00
65880;BME280;52661;51.364;6.054;2023-08-01T00:37:02;99535.78;;;16.91;100.00
65880;BME280;52661;51.364;6.054;2023-08-01T00:39:27;99533.97;;;16.88;100.00
65880;BME280;52661;51.364;6.054;2023-08-01T00:41:52;99535.00;;;16.91;100.00
65880;BME280;52661;51.364;6.054;2023-08-01T00:44:18;99531.66;;;16.87;100.00
65880;BME280;52661;51.364;6.054;2023-08-01T00:46:44;99531.81;;;16.83;100.00
65880;BME280;52661;51.364;6.054;2023-08-01T00:49:09;99531.97;;;16.80;100.00
65880;BME280;52661;51.364;6.054;2023-08-01T00:51:35;99525.75;;;16.70;100.00
65880;BME280;52661;51.364;6.054;2023-08-01T00:54:00;99525.59;;;16.73;100.00
65880;BME280;52661;51.364;6.054;2023-08-01T00:56:26;99520.13;;;16.64;100.00
65880;BME280;52661;51.364;6.054;2023-08-01T00:58:52;99519.22;;;16.58;100.00
65880;BME280;52661;51.364;6.054;2023-08-01T01:01:17;99516.31;;;16.53;100.00
65880;BME280;52661;51.364;6.054;2023-08-01T01:03:43;99527.72;;;16.51;100.00
65880;BME280;52661;51.364;6.054;2023-08-01T01:06:13;99516.63;;;16.46;100.00
65880;BME280;52661;51.364;6.054;2023-08-01T01:08:43;99515.69;;;16.40;100.00
65880;BME280;52661;51.364;6.054;2023-08-01T01:11:09;99511.28;;;16.33;100.00
65880;BME280;52661;51.364;6.054;2023-08-01T01:13:34;99509.91;;;16.29;100.00
65880;BME280;52661;51.364;6.054;2023-08-01T01:16:00;99500.34;;;16.33;100.00
65880;BME280;52661;51.364;6.054;2023-08-01T01:18:25;99504.44;;;16.29;100.00
65880;BME280;52661;51.364;6.054;2023-08-01T01:20:50;99518.59;;;16.27;100.00
65880;BME280;52661;51.364;6.054;2023-08-01T01:23:16;99510.38;;;16.27;100.00
65880;BME280;52661;51.364;6.054;2023-08-01T01:25:43;99507.34;;;16.34;100.00
65880;BME280;52661;51.364;6.054;2023-08-01T01:28:11;99506.41;;;16.37;100.00
65880;BME280;52661;51.364;6.054;2023-08-01T01:30:36;99510.97;;;16.40;100.00
65880;BME280;52661;51.364;6.054;2023-08-01T01:33:03;99507.31;;;16.43;100.00
65880;BME280;52661;51.364;6.054;2023-08-01T01:35:29;99506.13;;;16.44;100.00
65880;BME280;52661;51.364;6.054;2023-08-01T01:37:54;99514.78;;;16.43;100.00
65880;BME280;52661;51.364;6.054;2023-08-01T01:40:20;99520.72;;;16.41;100.00
65880;BME280;52661;51.364;6.054;2023-08-01T01:42:45;99511.91;;;16.37;100.00
65880;BME280;52661;51.364;6.054;2023-08-01T01:45:11;99514.78;;;16.34;100.00
65880;BME280;52661;51.364;6.054;2023-08-01T01:47:36;99511.28;;;16.33;100.00
65880;BME280;52661;51.364;6.054;2023-08-01T01:50:01;99499.56;;;16.33;100.00
65880;BME280;52661;51.364;6.054;2023-08-01T01:52:28;99502.94;;;16.28;100.00
65880;BME280;52661;51.364;6.054;2023-08-01T01:54:53;99497.59;;;16.24;100.00
65880;BME280;52661;51.364;6.054;2023-08-01T01:57:19;99507.47;;;16.21;100.00
65880;BME280;52661;51.364;6.054;2023-08-01T01:59:44;99499.25;;;16.21;100.00
65880;BME280;52661;51.364;6.054;2023-08-01T02:02:09;99508.72;;;16.20;100.00
65880;BME280;52661;51.364;6.054;2023-08-01T02:04:35;99509.59;;;16.17;100.00
65880;BME280;52661;51.364;6.054;2023-08-01T02:07:00;99505.94;;;16.11;100.00
65880;BME280;52661;51.364;6.054;2023-08-01T02:09:25;99505.94;;;16.02;100.00
65880;BME280;52661;51.364;6.054;2023-08-01T02:11:51;99508.22;;;16.04;100.00
65880;BME280;52661;51.364;6.054;2023-08-01T02:14:16;99509.88;;;15.92;100.00
65880;BME280;52661;51.364;6.054;2023-08-01T02:16:41;99514.44;;;15.95;100.00
65880;BME280;52661;51.364;6.054;2023-08-01T02:19:07;99508.22;;;15.95;100.00
65880;BME280;52661;51.364;6.054;2023-08-01T02:21:32;99510.63;;;15.93;100.00
65880;BME280;52661;51.364;6.054;2023-08-01T02:23:57;99522.03;;;15.91;100.00
65880;BME280;52661;51.364;6.054;2023-08-01T02:26:23;99520.81;;;15.92;100.00
65880;BME280;52661;51.364;6.054;2023-08-01T02:28:49;99519.44;;;15.88;100.00
65880;BME280;52661;51.364;6.054;2023-08-01T02:31:16;99517.94;;;15.87;100.00
65880;BME280;52661;51.364;6.054;2023-08-01T02:33:41;99521.72;;;15.89;100.00
65880;BME280;52661;51.364;6.054;2023-08-01T02:36:07;99526.13;;;15.87;100.00
65880;BME280;52661;51.364;6.054;2023-08-01T02:38:32;99533.44;;;15.90;100.00
65880;BME280;52661;51.364;6.054;2023-08-01T02:40:57;99533.28;;;15.84;100.00
65880;BME280;52661;51.364;6.054;2023-08-01T02:43:23;99535.25;;;15.84;100.00
65880;BME280;52661;51.364;6.054;2023-08-01T02:45:48;99530.69;;;15.81;100.00
65880;BME280;52661;51.364;6.054;2023-08-01T02:48:14;99538.13;;;15.80;100.00
65880;BME280;52661;51.364;6.054;2023-08-01T02:50:39;99541.44;;;15.75;100.00
65880;BME280;52661;51.364;6.054;2023-08-01T02:53:05;99541.78;;;15.77;100.00
65880;BME280;52661;51.364;6.054;2023-08-01T02:55:30;99531.56;;;15.77;100.00
65880;BME280;52661;51.364;6.054;2023-08-01T02:57:56;99533.38;;;15.71;100.00
65880;BME280;52661;51.364;6.054;2023-08-01T03:00:21;99528.34;;;15.70;100.00
65880;BME280;52661;51.364;6.054;2023-08-01T03:02:47;99536.56;;;15.70;100.00
65880;BME280;52661;51.364;6.054;2023-08-01T03:05:12;99531.38;;;15.63;100.00
65880;BME280;52661;51.364;6.054;2023-08-01T03:07:37;99532.91;;;15.64;100.00
65880;BME280;52661;51.364;6.054;2023-08-01T03:10:03;99539.13;;;15.64;100.00
65880;BME280;52661;51.364;6.054;2023-08-01T03:12:29;99535.00;;;15.60;100.00
65880;BME280;52661;51.364;6.054;2023-08-01T03:14:54;99535.34;;;15.62;100.00
65880;BME280;52661;51.364;6.054;2023-08-01T03:17:20;99540.34;;;15.63;100.00
65880;BME280;52661;51.364;6.054;2023-08-01T03:19:45;99541.56;;;15.62;100.00
65880;BME280;52661;51.364;6.054;2023-08-01T03:22:11;99539.25;;;15.52;100.00
65880;BME280;52661;51.364;6.054;2023-08-01T03:24:36;99541.84;;;15.55;100.00
65880;BME280;52661;51.364;6.054;2023-08-01T03:27:02;99544.44;;;15.59;100.00
65880;BME280;52661;51.364;6.054;2023-08-01T03:29:28;99551.41;;;15.51;100.00
65880;BME280;52661;51.364;6.054;2023-08-01T03:31:53;99559.75;;;15.56;100.00
65880;BME280;52661;51.364;6.054;2023-08-01T03:34:19;99546.84;;;15.57;100.00
65880;BME280;52661;51.364;6.054;2023-08-01T03:36:44;99548.06;;;15.56;100.00
65880;BME280;52661;51.364;6.054;2023-08-01T03:39:09;99538.97;;;15.59;100.00
65880;BME280;52661;51.364;6.054;2023-08-01T03:41:35;99543.97;;;15.60;100.00
65880;BME280;52661;51.364;6.054;2023-08-01T03:44:02;99542.31;;;15.63;100.00
65880;BME280;52661;51.364;6.054;2023-08-01T03:46:28;99549.72;;;15.53;100.00
65880;BME280;52661;51.364;6.054;2023-08-01T03:48:53;99548.06;;;15.56;100.00
65880;BME280;52661;51.364;6.054;2023-08-01T03:51:18;99552.16;;;15.51;100.00
65880;BME280;52661;51.364;6.054;2023-08-01T03:53:44;99542.91;;;15.58;100.00
65880;BME280;52661;51.364;6.054;2023-08-01T03:56:10;99545.66;;;15.58;100.00
65880;BME280;52661;51.364;6.054;2023-08-01T03:58:36;99540.19;;;15.58;100.00
65880;BME280;52661;51.364;6.054;2023-08-01T04:01:01;99535.16;;;15.56;100.00
65880;BME280;52661;51.364;6.054;2023-08-01T04:03:27;99538.50;;;15.60;100.00
65880;BME280;52661;51.364;6.054;2023-08-01T04:05:52;99546.84;;;15.57;100.00
65880;BME280;52661;51.364;6.054;2023-08-01T04:08:17;99547.91;;;15.59;100.00
65880;BME280;52661;51.364;6.054;2023-08-01T04:10:43;99550.66;;;15.59;100.00
65880;BME280;52661;51.364;6.054;2023-08-01T04:13:08;99553.84;;;15.58;100.00
65880;BME280;52661;51.364;6.054;2023-08-01T04:15:34;99565.22;;;15.56;100.00
65880;BME280;52661;51.364;6.054;2023-08-01T04:17:59;99546.84;;;15.57;100.00
65880;BME280;52661;51.364;6.054;2023-08-01T04:20:24;99563.41;;;15.53;100.00
65880;BME280;52661;51.364;6.054;2023-08-01T04:22:50;99554.28;;;15.56;100.00
65880;BME280;52661;51.364;6.054;2023-08-01T04:25:15;99555.53;;;15.55;100.00
65880;BME280;52661;51.364;6.054;2023-08-01T04:27:40;99557.03;;;15.56;100.00
65880;BME280;52661;51.364;6.054;2023-08-01T04:30:06;99566.59;;;15.52;100.00
65880;BME280;52661;51.364;6.054;2023-08-01T04:32:32;99557.34;;;15.58;100.00
65880;BME280;52661;51.364;6.054;2023-08-01T04:34:57;99557.03;;;15.56;100.00
65880;BME280;52661;51.364;6.054;2023-08-01T04:37:23;99567.66;;;15.54;100.00
65880;BME280;52661;51.364;6.054;2023-08-01T04:39:48;99560.66;;;15.53;100.00
65880;BME280;52661;51.364;6.054;2023-08-01T04:42:14;99559.28;;;15.49;100.00
65880;BME280;52661;51.364;6.054;2023-08-01T04:44:39;99559.91;;;15.53;100.00
65880;BME280;52661;51.364;6.054;2023-08-01T04:47:05;99554.00;;;15.54;100.00
65880;BME280;52661;51.364;6.054;2023-08-01T04:49:30;99554.00;;;15.54;100.00
65880;BME280;52661;51.364;6.054;2023-08-01T04:51:56;99566.91;;;15.54;100.00
65880;BME280;52661;51.364;6.054;2023-08-01T04:54:21;99561.72;;;15.56;100.00
65880;BME280;52661;51.364;6.054;2023-08-01T04:56:46;99569.06;;;15.59;100.00
65880;BME280;52661;51.364;6.054;2023-08-01T04:59:12;99568.44;;;15.55;100.00
65880;BME280;52661;51.364;6.054;2023-08-01T05:01:37;99573.75;;;15.58;100.00
65880;BME280;52661;51.364;6.054;2023-08-01T05:04:02;99575.47;;;15.65;100.00
65880;BME280;52661;51.364;6.054;2023-08-01T05:06:28;99575.47;;;15.65;100.00
65880;BME280;52661;51.364;6.054;2023-08-01T05:08:54;99575.91;;;15.63;100.00
65880;BME280;52661;51.364;6.054;2023-08-01T05:11:19;99578.97;;;15.65;100.00
65880;BME280;52661;51.364;6.054;2023-08-01T05:13:44;99586.25;;;15.68;100.00
65880;BME280;52661;51.364;6.054;2023-08-01T05:16:10;99590.06;;;15.71;100.00
65880;BME280;52661;51.364;6.054;2023-08-01T05:18:35;99586.25;;;15.68;100.00
65880;BME280;52661;51.364;6.054;2023-08-01T05:21:00;99585.94;;;15.66;100.00
65880;BME280;52661;51.364;6.054;2023-08-01T05:23:26;99596.88;;;15.66;100.00
65880;BME280;52661;51.364;6.054;2023-08-01T05:25:51;99601.59;;;15.66;100.00
65880;BME280;52661;51.364;6.054;2023-08-01T05:28:16;99591.72;;;15.68;100.00
65880;BME280;52661;51.364;6.054;2023-08-01T05:30:42;99596.28;;;15.62;100.00
65880;BME280;52661;51.364;6.054;2023-08-01T05:33:07;99602.03;;;15.64;100.00
65880;BME280;52661;51.364;6.054;2023-08-01T05:35:33;99598.28;;;15.71;100.00
65880;BME280;52661;51.364;6.054;2023-08-01T05:37:58;99594.34;;;15.72;100.00
65880;BME280;52661;51.364;6.054;2023-08-01T05:40:25;99594.34;;;15.72;100.00
65880;BME280;52661;51.364;6.054;2023-08-01T05:42:50;99596.13;;;15.66;100.00
65880;BME280;52661;51.364;6.054;2023-08-01T05:45:15;99594.47;;;15.68;100.00
65880;BME280;52661;51.364;6.054;2023-08-01T05:47:41;99599.47;;;15.70;100.00
65880;BME280;52661;51.364;6.054;2023-08-01T05:50:07;99599.94;;;15.68;100.00
65880;BME280;52661;51.364;6.054;2023-08-01T05:52:33;99601.16;;;15.67;100.00
65880;BME280;52661;51.364;6.054;2023-08-01T05:54:58;99604.22;;;15.69;100.00
65880;BME280;52661;51.364;6.054;2023-08-01T05:57:24;99602.06;;;15.73;100.00
65880;BME280;52661;51.364;6.054;2023-08-01T05:59:49;99599.53;;;15.79;100.00
65880;BME280;52661;51.364;6.054;2023-08-01T06:02:15;99604.09;;;15.82;100.00
65880;BME280;52661;51.364;6.054;2023-08-01T06:04:40;99603.94;;;15.86;100.00
65880;BME280;52661;51.364;6.054;2023-08-01T06:07:05;99605.63;;;15.83;100.00
65880;BME280;52661;51.364;6.054;2023-08-01T06:09:31;99610.81;;;15.90;100.00
65880;BME280;52661;51.364;6.054;2023-08-01T06:11:56;99615.38;;;15.84;100.00
65880;BME280;52661;51.364;6.054;2023-08-01T06:14:22;99607.91;;;15.85;100.00
65880;BME280;52661;51.364;6.054;2023-08-01T06:16:48;99596.38;;;15.90;100.00
65880;BME280;52661;51.364;6.054;2023-08-01T06:19:13;99596.22;;;15.93;100.00
65880;BME280;52661;51.364;6.054;2023-08-01T06:21:39;99604.00;;;16.04;100.00
65880;BME280;52661;51.364;6.054;2023-08-01T06:24:04;99603.44;;;16.09;100.00
65880;BME280;52661;51.364;6.054;2023-08-01T06:26:30;99594.88;;;16.07;100.00
65880;BME280;52661;51.364;6.054;2023-08-01T06:28:55;99607.09;;;16.15;100.00
65880;BME280;52661;51.364;6.054;2023-08-01T06:31:21;99608.47;;;16.19;100.00
65880;BME280;52661;51.364;6.054;2023-08-01T06:33:46;99615.00;;;16.22;100.00
65880;BME280;52661;51.364;6.054;2023-08-01T06:36:12;99614.38;;;16.18;100.00
65880;BME280;52661;51.364;6.054;2023-08-01T06:38:38;99622.31;;;16.25;100.00
65880;BME280;52661;51.364;6.054;2023-08-01T06:41:03;99622.94;;;16.29;100.00
65880;BME280;52661;51.364;6.054;2023-08-01T06:43:29;99617.31;;;16.33;100.00
65880;BME280;52661;51.364;6.054;2023-08-01T06:45:54;99622.81;;;16.42;100.00
65880;BME280;52661;51.364;6.054;2023-08-01T06:48:20;99623.28;;;16.49;100.00
65880;BME280;52661;51.364;6.054;2023-08-01T06:50:45;99625.00;;;16.56;100.00
65880;BME280;52661;51.364;6.054;2023-08-01T06:53:11;99623.59;;;16.60;100.00
65880;BME280;52661;51.364;6.054;2023-08-01T06:55:36;99625.13;;;16.61;100.00
65880;BME280;52661;51.364;6.054;2023-08-01T06:58:01;99626.97;;;16.64;100.00
65880;BME280;52661;51.364;6.054;2023-08-01T07:00:27;99629.09;;;16.69;100.00
65880;BME280;52661;51.364;6.054;2023-08-01T07:02:52;99638.25;;;16.66;100.00
65880;BME280;52661;51.364;6.054;2023-08-01T07:05:17;99630.31;;;16.68;100.00
65880;BME280;52661;51.364;6.054;2023-08-01T07:07:43;99631.81;;;16.60;100.00
65880;BME280;52661;51.364;6.054;2023-08-01T07:10:08;99637.56;;;16.53;100.00
65880;BME280;52661;51.364;6.054;2023-08-01T07:12:34;99631.19;;;16.47;100.00
65880;BME280;52661;51.364;6.054;2023-08-01T07:14:59;99643.66;;;16.48;100.00
65880;BME280;52661;51.364;6.054;2023-08-01T07:17:25;99640.50;;;16.68;100.00
65880;BME280;52661;51.364;6.054;2023-08-01T07:19:50;99643.41;;;16.64;100.00
65880;BME280;52661;51.364;6.054;2023-08-01T07:22:15;99634.09;;;16.53;100.00
65880;BME280;52661;51.364;6.054;2023-08-01T07:24:41;99648.41;;;16.57;100.00
65880;BME280;52661;51.364;6.054;2023-08-01T07:27:06;99648.22;;;16.51;100.00
65880;BME280;52661;51.364;6.054;2023-08-01T07:29:32;99643.97;;;16.50;100.00
65880;BME280;52661;51.364;6.054;2023-08-01T07:31:57;99647.31;;;16.54;100.00
65880;BME280;52661;51.364;6.054;2023-08-01T07:34:22;99653.31;;;16.62;100.00
65880;BME280;52661;51.364;6.054;2023-08-01T07:36:48;99657.41;;;16.66;100.00
65880;BME280;52661;51.364;6.054;2023-08-01T07:39:14;99652.09;;;16.81;100.00
65880;BME280;52661;51.364;6.054;2023-08-01T07:41:40;99656.19;;;16.86;100.00
65880;BME280;52661;51.364;6.054;2023-08-01T07:44:05;99661.09;;;16.91;100.00
65880;BME280;52661;51.364;6.054;2023-08-01T07:46:31;99653.16;;;16.84;100.00
65880;BME280;52661;51.364;6.054;2023-08-01T07:48:57;99661.84;;;17.00;100.00
65880;BME280;52661;51.364;6.054;2023-08-01T07:51:22;99666.28;;;17.07;100.00
65880;BME280;52661;51.364;6.054;2023-08-01T07:53:48;99667.16;;;17.04;100.00
65880;BME280;52661;51.364;6.054;2023-08-01T07:56:13;99673.59;;;17.10;100.00
65880;BME280;52661;51.364;6.054;2023-08-01T07:58:38;99673.75;;;17.06;100.00
65880;BME280;52661;51.364;6.054;2023-08-01T08:01:05;99674.66;;;17.03;100.00
65880;BME280;52661;51.364;6.054;2023-08-01T08:03:31;99673.13;;;17.02;100.00
65880;BME280;52661;51.364;6.054;2023-08-01T08:05:56;99668.38;;;17.12;100.00
65880;BME280;52661;51.364;6.054;2023-08-01T08:08:22;99674.63;;;17.31;100.00
65880;BME280;52661;51.364;6.054;2023-08-01T08:10:47;99671.25;;;17.54;100.00
65880;BME280;52661;51.364;6.054;2023-08-01T08:13:12;99673.50;;;17.55;100.00
65880;BME280;52661;51.364;6.054;2023-08-01T08:15:38;99672.59;;;17.67;100.00
65880;BME280;52661;51.364;6.054;2023-08-01T08:18:03;99681.63;;;17.50;100.00
65880;BME280;52661;51.364;6.054;2023-08-01T08:20:30;99669.59;;;17.56;100.00
65880;BME280;52661;51.364;6.054;2023-08-01T08:22:56;99675.19;;;17.62;100.00
65880;BME280;52661;51.364;6.054;2023-08-01T08:25:22;99675.19;;;17.53;100.00
65880;BME280;52661;51.364;6.054;2023-08-01T08:27:48;99690.44;;;17.45;100.00
65880;BME280;52661;51.364;6.054;2023-08-01T08:30:14;99675.53;;;17.37;100.00
65880;BME280;52661;51.364;6.054;2023-08-01T08:32:40;99671.09;;;17.48;100.00
65880;BME280;52661;51.364;6.054;2023-08-01T08:35:05;99675.63;;;17.69;100.00
65880;BME280;52661;51.364;6.054;2023-08-01T08:37:30;99677.78;;;17.65;100.00
65880;BME280;52661;51.364;6.054;2023-08-01T08:39:56;99672.00;;;17.54;100.00
65880;BME280;52661;51.364;6.054;2023-08-01T08:42:21;99664.16;;;17.80;100.00
65880;BME280;52661;51.364;6.054;2023-08-01T08:44:49;99660.47;;;17.92;100.00
65880;BME280;52661;51.364;6.054;2023-08-01T08:47:17;99668.59;;;17.87;100.00
65880;BME280;52661;51.364;6.054;2023-08-01T08:49:45;99666.13;;;17.89;100.00
65880;BME280;52661;51.364;6.054;2023-08-01T08:52:11;99682.31;;;17.87;100.00
65880;BME280;52661;51.364;6.054;2023-08-01T08:54:37;99678.03;;;17.86;100.00
65880;BME280;52661;51.364;6.054;2023-08-01T08:57:05;99676.66;;;17.90;100.00
65880;BME280;52661;51.364;6.054;2023-08-01T08:59:32;99679.53;;;17.96;100.00
65880;BME280;52661;51.364;6.054;2023-08-01T09:01:58;99693.28;;;17.87;100.00
65880;BME280;52661;51.364;6.054;2023-08-01T09:04:27;99682.31;;;17.87;100.00
65880;BME280;52661;51.364;6.054;2023-08-01T09:06:55;99669.91;;;18.00;100.00
65880;BME280;52661;51.364;6.054;2023-08-01T09:09:23;99672.31;;;18.07;100.00
65880;BME280;52661;51.364;6.054;2023-08-01T09:11:52;99682.19;;;18.14;100.00
65880;BME280;52661;51.364;6.054;2023-08-01T09:14:19;99677.81;;;18.07;100.00
65880;BME280;52661;51.364;6.054;2023-08-01T09:16:45;99674.84;;;18.20;100.00
65880;BME280;52661;51.364;6.054;2023-08-01T09:19:19;99674.75;;;18.38;100.00
65880;BME280;52661;51.364;6.054;2023-08-01T09:21:45;99689.22;;;18.48;100.00
65880;BME280;52661;51.364;6.054;2023-08-01T09:24:16;99682.53;;;18.40;100.00
65880;BME280;52661;51.364;6.054;2023-08-01T09:26:43;99683.63;;;18.33;100.00
65880;BME280;52661;51.364;6.054;2023-08-01T09:29:08;99686.72;;;18.26;100.00
65880;BME280;52661;51.364;6.054;2023-08-01T09:31:39;99684.75;;;18.27;100.00
65880;BME280;52661;51.364;6.054;2023-08-01T09:34:06;99682.63;;;18.22;100.00
65880;BME280;52661;51.364;6.054;2023-08-01T09:36:33;99685.53;;;18.18;100.00
65880;BME280;52661;51.364;6.054;2023-08-01T09:39:03;99678.75;;;18.04;100.00
65880;BME280;52661;51.364;6.054;2023-08-01T09:41:30;99690.78;;;18.07;100.00
65880;BME280;52661;51.364;6.054;2023-08-01T09:43:56;99700.81;;;18.19;100.00
65880;BME280;52661;51.364;6.054;2023-08-01T09:46:22;99700.63;;;18.23;100.00
65880;BME280;52661;51.364;6.054;2023-08-01T09:48:47;99690.63;;;18.34;100.00
65880;BME280;52661;51.364;6.054;2023-08-01T09:51:15;99691.81;;;18.42;100.00
65880;BME280;52661;51.364;6.054;2023-08-01T09:53:52;99692.25;;;18.50;100.00
65880;BME280;52661;51.364;6.054;2023-08-01T09:56:26;99698.81;;;18.52;100.00
65880;BME280;52661;51.364;6.054;2023-08-01T09:58:53;99694.56;;;18.51;100.00
65880;BME280;52661;51.364;6.054;2023-08-01T10:01:22;99696.06;;;18.52;100.00
65880;BME280;52661;51.364;6.054;2023-08-01T10:03:50;99693.16;;;18.47;100.00
65880;BME280;52661;51.364;6.054;2023-08-01T10:06:24;99690.88;;;18.54;100.00
65880;BME280;52661;51.364;6.054;2023-08-01T10:08:51;99699.22;;;18.60;100.00
65880;BME280;52661;51.364;6.054;2023-08-01T10:11:19;99702.16;;;18.56;100.00
65880;BME280;52661;51.364;6.054;2023-08-01T10:13:45;99708.22;;;18.60;100.00
65880;BME280;52661;51.364;6.054;2023-08-01T10:16:11;99708.88;;;18.55;100.00
65880;BME280;52661;51.364;6.054;2023-08-01T10:18:37;99718.19;;;18.58;100.00
65880;BME280;52661;51.364;6.054;2023-08-01T10:21:16;99723.41;;;18.47;100.00
65880;BME280;52661;51.364;6.054;2023-08-01T10:23:43;99717.59;;;18.54;100.00
65880;BME280;52661;51.364;6.054;2023-08-01T10:26:10;99719.59;;;18.77;100.00
65880;BME280;52661;51.364;6.054;2023-08-01T10:28:38;99722.28;;;18.86;100.00
65880;BME280;52661;51.364;6.054;2023-08-01T10:31:08;99718.16;;;18.82;100.00
65880;BME280;52661;51.364;6.054;2023-08-01T10:33:34;99721.09;;;18.78;100.00
65880;BME280;52661;51.364;6.054;2023-08-01T10:36:00;99718.13;;;18.67;100.00
65880;BME280;52661;51.364;6.054;2023-08-01T10:38:25;99726.94;;;18.71;100.00
65880;BME280;52661;51.364;6.054;2023-08-01T10:40:50;99730.81;;;18.88;100.00
65880;BME280;52661;51.364;6.054;2023-08-01T10:43:24;99725.31;;;19.12;100.00
65880;BME280;52661;51.364;6.054;2023-08-01T10:46:05;99729.19;;;19.44;100.00
65880;BME280;52661;51.364;6.054;2023-08-01T10:48:31;99729.00;;;19.62;100.00
65880;BME280;52661;51.364;6.054;2023-08-01T10:50:56;99733.19;;;19.72;100.00
65880;BME280;52661;51.364;6.054;2023-08-01T10:53:22;99728.47;;;19.34;100.00
65880;BME280;52661;51.364;6.054;2023-08-01T10:55:48;99737.47;;;19.20;100.00
65880;BME280;52661;51.364;6.054;2023-08-01T10:58:14;99733.78;;;19.23;100.00
65880;BME280;52661;51.364;6.054;2023-08-01T11:00:42;99735.00;;;19.22;100.00
65880;BME280;52661;51.364;6.054;2023-08-01T11:03:08;99737.84;;;19.13;100.00
65880;BME280;52661;51.364;6.054;2023-08-01T11:05:33;99729.44;;;19.07;100.00
65880;BME280;52661;51.364;6.054;2023-08-01T11:08:01;99744.41;;;18.92;100.00
65880;BME280;52661;51.364;6.054;2023-08-01T11:10:31;99743.97;;;18.60;100.00
65880;BME280;52661;51.364;6.054;2023-08-01T11:12:58;99748.59;;;18.54;100.00
65880;BME280;52661;51.364;6.054;2023-08-01T11:15:24;99747.97;;;18.50;100.00
65880;BME280;52661;51.364;6.054;2023-08-01T11:17:51;99747.97;;;18.50;100.00
65880;BME280;52661;51.364;6.054;2023-08-01T11:20:18;99752.56;;;18.44;100.00
65880;BME280;52661;51.364;6.054;2023-08-01T11:22:55;99760.16;;;18.49;100.00
65880;BME280;52661;51.364;6.054;2023-08-01T11:25:34;99758.84;;;18.36;100.00
65880;BME280;52661;51.364;6.054;2023-08-01T11:28:13;99767.00;;;18.30;100.00
65880;BME280;52661;51.364;6.054;2023-08-01T11:30:39;99760.03;;;18.11;100.00
65880;BME280;52661;51.364;6.054;2023-08-01T11:35:43;99757.66;;;18.28;100.00
65880;BME280;52661;51.364;6.054;2023-08-01T11:38:08;99764.25;;;18.30;100.00
65880;BME280;52661;51.364;6.054;2023-08-01T11:40:34;99764.41;;;18.27;100.00
65880;BME280;52661;51.364;6.054;2023-08-01T11:42:59;99765.47;;;18.29;100.00
65880;BME280;52661;51.364;6.054;2023-08-01T11:45:25;99755.50;;;18.41;100.00
65880;BME280;52661;51.364;6.054;2023-08-01T11:47:51;99770.22;;;18.61;100.00
65880;BME280;52661;51.364;6.054;2023-08-01T11:50:24;99771.25;;;18.73;100.00
65880;BME280;52661;51.364;6.054;2023-08-01T11:52:50;99769.25;;;18.97;100.00
65880;BME280;52661;51.364;6.054;2023-08-01T11:57:56;99775.34;;;19.63;100.00
65880;BME280;52661;51.364;6.054;2023-08-01T12:00:23;99771.09;;;19.92;100.00
65880;BME280;52661;51.364;6.054;2023-08-01T12:02:48;99763.03;;;20.03;100.00
65880;BME280;52661;51.364;6.054;2023-08-01T12:05:21;99759.56;;;20.23;100.00
65880;BME280;52661;51.364;6.054;2023-08-01T12:07:47;99775.34;;;20.37;100.00
65880;BME280;52661;51.364;6.054;2023-08-01T12:10:12;99770.16;;;20.59;100.00
65880;BME280;52661;51.364;6.054;2023-08-01T12:12:47;99787.44;;;20.74;100.00
65880;BME280;52661;51.364;6.054;2023-08-01T12:15:14;99772.97;;;20.30;100.00
65880;BME280;52661;51.364;6.054;2023-08-01T12:17:40;99770.91;;;19.95;100.00
65880;BME280;52661;51.364;6.054;2023-08-01T12:20:06;99764.91;;;19.68;100.00
65880;BME280;52661;51.364;6.054;2023-08-01T12:22:32;99763.38;;;19.52;100.00
65880;BME280;52661;51.364;6.054;2023-08-01T12:24:57;99761.78;;;19.75;100.00
65880;BME280;52661;51.364;6.054;2023-08-01T12:27:23;99759.50;;;20.02;100.00
65880;BME280;52661;51.364;6.054;2023-08-01T12:33:10;99782.72;;;20.60;100.00
65880;BME280;52661;51.364;6.054;2023-08-01T12:35:40;99781.41;;;20.26;100.00
65880;BME280;52661;51.364;6.054;2023-08-01T12:38:06;99778.88;;;20.37;100.00
65880;BME280;52661;51.364;6.054;2023-08-01T12:40:31;99788.25;;;20.80;100.00
65880;BME280;52661;51.364;6.054;2023-08-01T12:42:57;99797.31;;;21.16;96.86
65880;BME280;52661;51.364;6.054;2023-08-01T12:45:22;99793.16;;;21.26;97.02
65880;BME280;52661;51.364;6.054;2023-08-01T12:47:48;99788.47;;;21.32;100.00
65880;BME280;52661;51.364;6.054;2023-08-01T12:50:14;99785.34;;;21.24;93.33
65880;BME280;52661;51.364;6.054;2023-08-01T12:52:39;99779.97;;;21.35;94.92